• Join FlightAware (Why Join?)
  • Login
  • US Flag 
08:54AM EDT


 

Airport Tracker/Info


-or-


 

Live Flight TrackerFlight Track Log ✈ SWA1718 ✈ 10-May-2013 ✈ KAMA - KDEN

Flight Track Log - Related Links

Times and Time Zones

All times are in EDT time to prevent confusion due to time zone crossing. See the SWA1718 flight status page for this flight to view local times or setup timezone preferences in your user account.

Time Position Orientation Groundspeed Altitude Reporting Facility
EDT Latitude Longitude Course Direction KTS MPH feet Rate Location/Type
06:08PM 35.4094 -101.7686 339° North 269 310 11,500  Level Albuquerque Center
06:10PM 35.4897 -101.8072 339° North 299 344 13,300 2,160 Climbing Albuquerque Center
06:11PM 35.5792 -101.8478 340° North 333 383 16,000 2,400 Climbing Albuquerque Center
06:12PM 35.6719 -101.8919 339° North 349 402 18,300 2,220 Climbing Albuquerque Center
06:13PM 35.8085 -101.9667 342° North  Level FlightAware Approximate
06:13PM 35.7878 -101.9469 339° North 366 421 20,600  Level Albuquerque Center
06:14PM 35.8919 -101.9958 339° North 392 451 22,500 1,920 Climbing Albuquerque Center
06:15PM 35.9969 -102.0450 339° North 402 463 24,600 1,740 Climbing Albuquerque Center
06:16PM 36.1039 -102.0942 340° North 407 468 26,100 1,380 Climbing Albuquerque Center
06:17PM 36.2150 -102.1475 339° North 423 487 27,500 1,440 Climbing Albuquerque Center
06:18PM 36.3278 -102.2011 339° North 432 497 29,100 1,440 Climbing Albuquerque Center
06:19PM 36.4414 -102.2550 339° North 436 502 30,500 1,560 Climbing Albuquerque Center
06:20PM 36.5769 -102.3208 339° North 436 502 32,300 1,620 Climbing Albuquerque Center
06:21PM 36.6881 -102.3753 339° North 431 496 33,900 780 Climbing Albuquerque Center
06:22PM 36.7967 -102.4264 339° North 422 486 34,000  Climbing Albuquerque Center
06:23PM 36.8992 -102.4761 339° North 420 483 34,000  Level Albuquerque Center
06:24PM 37.0136 -102.5322 339° North 426 490 34,000  Level Albuquerque Center
06:25PM 37.1342 -102.5917 339° North 420 483 34,000  Level Albuquerque Center
06:26PM 37.2378 -102.6422 339° North 418 481 34,000  Level Albuquerque Center
06:27PM 37.3592 -102.7014 339° North 418 481 34,000  Level Albuquerque Center
06:28PM 37.4428 -102.7431 338° Northwest 413 475 34,000  Level Denver Center
06:29PM 37.5644 -102.7953 341° North 414 476 34,000  Level Denver Center
06:30PM 37.6725 -102.8297 346° North 418 481 34,000  Level Denver Center
06:31PM 37.7978 -102.8686 346° North 417 480 34,000  Level Denver Center
06:32PM 37.9061 -102.9019 346° North 417 480 34,000  Level Denver Center
06:33PM 38.0328 -102.9411 346° North 420 483 34,000  Level Denver Center
06:35PM 38.2392 -103.0847 331° Northwest 419 482 34,000  Level Denver Center
06:36PM 38.3272 -103.1731 322° Northwest 420 483 34,000  Level Denver Center
06:37PM 38.4311 -103.2769 322° Northwest 422 486 34,000 -180 Level Denver Center
06:38PM 38.5117 -103.3758 316° Northwest 421 484 33,700 -780 Descending Denver Center
06:39PM 38.5858 -103.5156 304° West 419 482 32,500 -1,020 Descending Denver Center
06:40PM 38.6508 -103.6278 307° West 412 474 31,600 -1,200 Descending Denver Center
06:41PM 38.7328 -103.7547 310° West 414 476 30,100 -1,980 Descending Denver Center
06:42PM 38.8061 -103.8658 310° West 423 487 27,600 -2,340 Descending Denver Center
06:43PM 38.8944 -103.9878 313° West 420 483 25,300 -2,100 Descending Denver Center
06:44PM 38.9761 -104.0664 323° Northwest 405 466 23,300 -2,160 Descending Denver Center
06:45PM 39.0619 -104.1272 331° Northwest 387 445 20,900 -2,520 Descending Denver Center
06:46PM 39.1397 -104.1806 332° Northwest 368 423 18,200 -2,100 Descending Denver Center
06:47PM 39.2347 -104.2603 327° Northwest 326 375 16,600 -1,680 Descending Denver Center
06:49PM 39.3061 -104.3342 321° Northwest 306 352 14,800 -1,620 Descending Denver Center
06:50PM 39.3678 -104.4028 319° Northwest 292 336 13,300 -1,560 Descending Denver Center
06:51PM 39.4281 -104.4686 320° Northwest 282 325 11,600 -1,620 Descending Denver Center
06:52PM 39.4928 -104.5378 320° Northwest 281 323 10,000 -1,260 Descending Denver Center
06:53PM 39.5583 -104.5644 343° North 248 285 9,100 -540 Descending Denver Center
06:54PM 39.6275 -104.5928 342° North 242 278 9,000 -540 Descending Denver Center
06:55PM 39.6878 -104.6178 342° North 231 266 8,100 -960 Descending Denver Center
06:56PM 39.7428 -104.6394 343° North 212 244 7,100 -900 Descending Denver Center
06:57PM 39.7878 -104.6433 356° North 154 177 6,300 -780 Descending Denver Center
06:58PM 39.8303 -104.6417 North 154 177 5,500 -780 Descending Denver Center
07:00PM 39.8500 -104.6667 North  Level FlightAware Approximate
07:07PM 39.8617 -104.6732 North  Level Estimated
07:08PM 39.8617 -104.6732 North  Level Estimated